sensor_id;sensor_type;location;lat;lon;timestamp;temperature;humidity
64549;DHT22;49838;51.798;10.954;2022-12-18T00:01:53;2.00;37.00
64549;DHT22;49838;51.798;10.954;2022-12-18T00:04:24;2.00;37.00
64549;DHT22;49838;51.798;10.954;2022-12-18T00:06:52;2.00;37.00
64549;DHT22;49838;51.798;10.954;2022-12-18T00:09:20;2.00;37.00
64549;DHT22;49838;51.798;10.954;2022-12-18T00:11:48;2.00;37.00
64549;DHT22;49838;51.798;10.954;2022-12-18T00:14:15;2.00;37.10
64549;DHT22;49838;51.798;10.954;2022-12-18T00:16:44;2.00;37.10
64549;DHT22;49838;51.798;10.954;2022-12-18T00:19:13;2.00;37.10
64549;DHT22;49838;51.798;10.954;2022-12-18T00:21:41;2.00;37.00
64549;DHT22;49838;51.798;10.954;2022-12-18T00:24:09;2.00;37.00
64549;DHT22;49838;51.798;10.954;2022-12-18T00:26:38;2.00;37.00
64549;DHT22;49838;51.798;10.954;2022-12-18T00:29:06;2.00;37.00
64549;DHT22;49838;51.798;10.954;2022-12-18T00:31:35;2.00;37.00
64549;DHT22;49838;51.798;10.954;2022-12-18T00:34:05;2.00;37.00
64549;DHT22;49838;51.798;10.954;2022-12-18T00:36:33;2.00;37.00
64549;DHT22;49838;51.798;10.954;2022-12-18T00:39:02;2.00;37.10
64549;DHT22;49838;51.798;10.954;2022-12-18T00:41:31;2.00;37.10
64549;DHT22;49838;51.798;10.954;2022-12-18T00:44:17;2.00;37.00
64549;DHT22;49838;51.798;10.954;2022-12-18T00:46:45;2.00;37.00
64549;DHT22;49838;51.798;10.954;2022-12-18T00:49:15;2.00;37.00
64549;DHT22;49838;51.798;10.954;2022-12-18T00:51:44;1.90;37.00
64549;DHT22;49838;51.798;10.954;2022-12-18T00:54:12;1.90;37.00
64549;DHT22;49838;51.798;10.954;2022-12-18T00:56:39;1.90;37.00
64549;DHT22;49838;51.798;10.954;2022-12-18T00:59:07;1.90;37.00
64549;DHT22;49838;51.798;10.954;2022-12-18T01:01:34;1.90;37.10
64549;DHT22;49838;51.798;10.954;2022-12-18T01:04:02;1.90;37.10
64549;DHT22;49838;51.798;10.954;2022-12-18T01:06:31;1.80;37.00
64549;DHT22;49838;51.798;10.954;2022-12-18T01:08:58;1.80;37.00
64549;DHT22;49838;51.798;10.954;2022-12-18T01:11:26;1.80;37.00
64549;DHT22;49838;51.798;10.954;2022-12-18T01:13:54;1.80;37.60
64549;DHT22;49838;51.798;10.954;2022-12-18T01:16:21;1.80;36.90
64549;DHT22;49838;51.798;10.954;2022-12-18T01:18:51;1.80;37.00
64549;DHT22;49838;51.798;10.954;2022-12-18T01:21:19;1.80;37.00
64549;DHT22;49838;51.798;10.954;2022-12-18T01:23:51;1.80;37.00
64549;DHT22;49838;51.798;10.954;2022-12-18T01:26:20;1.80;37.00
64549;DHT22;49838;51.798;10.954;2022-12-18T01:28:47;1.80;37.00
64549;DHT22;49838;51.798;10.954;2022-12-18T01:31:16;1.80;37.00
64549;DHT22;49838;51.798;10.954;2022-12-18T01:33:45;1.80;37.00
64549;DHT22;49838;51.798;10.954;2022-12-18T01:36:16;1.80;37.00
64549;DHT22;49838;51.798;10.954;2022-12-18T01:38:45;1.80;37.00
64549;DHT22;49838;51.798;10.954;2022-12-18T01:41:14;1.80;37.10
64549;DHT22;49838;51.798;10.954;2022-12-18T01:43:44;1.80;37.00
64549;DHT22;49838;51.798;10.954;2022-12-18T01:46:15;1.80;37.60
64549;DHT22;49838;51.798;10.954;2022-12-18T01:48:44;1.80;36.90
64549;DHT22;49838;51.798;10.954;2022-12-18T01:51:16;1.80;36.90
64549;DHT22;49838;51.798;10.954;2022-12-18T01:53:44;1.80;37.00
64549;DHT22;49838;51.798;10.954;2022-12-18T01:56:15;1.70;37.00
64549;DHT22;49838;51.798;10.954;2022-12-18T01:58:52;1.70;37.00
64549;DHT22;49838;51.798;10.954;2022-12-18T02:01:23;1.70;37.10
64549;DHT22;49838;51.798;10.954;2022-12-18T02:03:52;1.70;37.10
64549;DHT22;49838;51.798;10.954;2022-12-18T02:06:20;1.70;37.10
64549;DHT22;49838;51.798;10.954;2022-12-18T02:08:58;1.70;37.00
64549;DHT22;49838;51.798;10.954;2022-12-18T02:11:39;1.70;37.00
64549;DHT22;49838;51.798;10.954;2022-12-18T02:14:17;1.70;37.00
64549;DHT22;49838;51.798;10.954;2022-12-18T02:16:52;1.80;37.10
64549;DHT22;49838;51.798;10.954;2022-12-18T02:19:31;1.70;37.00
64549;DHT22;49838;51.798;10.954;2022-12-18T02:22:08;1.80;37.00
64549;DHT22;49838;51.798;10.954;2022-12-18T02:24:51;1.70;37.00
64549;DHT22;49838;51.798;10.954;2022-12-18T02:27:28;1.70;37.10
64549;DHT22;49838;51.798;10.954;2022-12-18T02:29:59;1.70;37.20
64549;DHT22;49838;51.798;10.954;2022-12-18T02:32:30;1.70;37.20
64549;DHT22;49838;51.798;10.954;2022-12-18T02:35:02;1.70;37.10
64549;DHT22;49838;51.798;10.954;2022-12-18T02:37:32;1.70;37.10
64549;DHT22;49838;51.798;10.954;2022-12-18T02:40:02;1.70;37.10
64549;DHT22;49838;51.798;10.954;2022-12-18T02:42:33;1.70;37.10
64549;DHT22;49838;51.798;10.954;2022-12-18T02:45:00;1.70;37.00
64549;DHT22;49838;51.798;10.954;2022-12-18T02:47:28;1.70;37.00
64549;DHT22;49838;51.798;10.954;2022-12-18T02:50:02;1.70;37.10
64549;DHT22;49838;51.798;10.954;2022-12-18T02:52:35;1.70;37.10
64549;DHT22;49838;51.798;10.954;2022-12-18T02:55:13;1.70;37.10
64549;DHT22;49838;51.798;10.954;2022-12-18T02:57:49;1.70;37.00
64549;DHT22;49838;51.798;10.954;2022-12-18T03:00:21;1.70;37.00
64549;DHT22;49838;51.798;10.954;2022-12-18T03:02:51;1.80;37.10
64549;DHT22;49838;51.798;10.954;2022-12-18T03:05:25;1.80;37.10
64549;DHT22;49838;51.798;10.954;2022-12-18T03:07:57;1.80;37.10
64549;DHT22;49838;51.798;10.954;2022-12-18T03:10:27;1.80;37.10
64549;DHT22;49838;51.798;10.954;2022-12-18T03:13:00;1.80;37.10
64549;DHT22;49838;51.798;10.954;2022-12-18T03:15:31;1.80;37.00
64549;DHT22;49838;51.798;10.954;2022-12-18T03:18:04;1.80;37.00
64549;DHT22;49838;51.798;10.954;2022-12-18T03:20:37;1.90;37.10
64549;DHT22;49838;51.798;10.954;2022-12-18T03:23:09;1.80;37.00
64549;DHT22;49838;51.798;10.954;2022-12-18T03:25:41;1.70;37.00
64549;DHT22;49838;51.798;10.954;2022-12-18T03:28:13;1.70;37.00
64549;DHT22;49838;51.798;10.954;2022-12-18T03:30:43;1.80;37.10
64549;DHT22;49838;51.798;10.954;2022-12-18T03:33:14;1.80;37.10
64549;DHT22;49838;51.798;10.954;2022-12-18T03:35:46;1.80;37.00
64549;DHT22;49838;51.798;10.954;2022-12-18T03:38:13;1.80;37.00
64549;DHT22;49838;51.798;10.954;2022-12-18T03:40:43;1.70;37.00
64549;DHT22;49838;51.798;10.954;2022-12-18T03:43:19;1.70;37.00
64549;DHT22;49838;51.798;10.954;2022-12-18T03:45:54;1.70;37.10
64549;DHT22;49838;51.798;10.954;2022-12-18T03:48:28;1.60;37.10
64549;DHT22;49838;51.798;10.954;2022-12-18T03:50:59;1.60;37.10
64549;DHT22;49838;51.798;10.954;2022-12-18T03:53:33;1.60;37.10
64549;DHT22;49838;51.798;10.954;2022-12-18T03:56:05;1.60;37.00
64549;DHT22;49838;51.798;10.954;2022-12-18T03:58:36;1.70;37.10
64549;DHT22;49838;51.798;10.954;2022-12-18T04:01:06;1.60;37.10
64549;DHT22;49838;51.798;10.954;2022-12-18T04:03:35;1.60;37.10
64549;DHT22;49838;51.798;10.954;2022-12-18T04:06:04;1.60;37.10
64549;DHT22;49838;51.798;10.954;2022-12-18T04:08:33;1.40;37.00
64549;DHT22;49838;51.798;10.954;2022-12-18T04:11:01;1.50;37.00
64549;DHT22;49838;51.798;10.954;2022-12-18T04:13:30;1.50;37.10
64549;DHT22;49838;51.798;10.954;2022-12-18T04:16:01;1.40;37.00
64549;DHT22;49838;51.798;10.954;2022-12-18T04:18:28;1.40;37.00
64549;DHT22;49838;51.798;10.954;2022-12-18T04:20:56;1.40;37.00
64549;DHT22;49838;51.798;10.954;2022-12-18T04:23:24;1.40;37.00
64549;DHT22;49838;51.798;10.954;2022-12-18T04:25:51;1.40;37.00
64549;DHT22;49838;51.798;10.954;2022-12-18T04:28:18;1.30;37.00
64549;DHT22;49838;51.798;10.954;2022-12-18T04:30:46;1.30;37.00
64549;DHT22;49838;51.798;10.954;2022-12-18T04:33:16;1.30;37.00
64549;DHT22;49838;51.798;10.954;2022-12-18T04:35:44;1.30;37.00
64549;DHT22;49838;51.798;10.954;2022-12-18T04:38:12;1.30;36.90
64549;DHT22;49838;51.798;10.954;2022-12-18T04:40:39;1.30;36.90
64549;DHT22;49838;51.798;10.954;2022-12-18T04:43:06;1.20;36.80
64549;DHT22;49838;51.798;10.954;2022-12-18T04:45:34;1.30;36.90
64549;DHT22;49838;51.798;10.954;2022-12-18T04:48:02;1.30;36.90
64549;DHT22;49838;51.798;10.954;2022-12-18T04:50:31;1.30;36.90
64549;DHT22;49838;51.798;10.954;2022-12-18T04:52:58;1.20;36.80
64549;DHT22;49838;51.798;10.954;2022-12-18T04:55:26;1.20;36.80
64549;DHT22;49838;51.798;10.954;2022-12-18T04:57:54;1.20;36.80
64549;DHT22;49838;51.798;10.954;2022-12-18T05:00:21;1.20;36.80
64549;DHT22;49838;51.798;10.954;2022-12-18T05:02:49;1.20;36.80
64549;DHT22;49838;51.798;10.954;2022-12-18T05:05:16;1.20;36.80
64549;DHT22;49838;51.798;10.954;2022-12-18T05:07:45;1.20;36.90
64549;DHT22;49838;51.798;10.954;2022-12-18T05:10:12;1.30;37.00
64549;DHT22;49838;51.798;10.954;2022-12-18T05:12:40;1.20;37.00
64549;DHT22;49838;51.798;10.954;2022-12-18T05:15:21;1.10;36.90
64549;DHT22;49838;51.798;10.954;2022-12-18T05:17:48;1.10;37.00
64549;DHT22;49838;51.798;10.954;2022-12-18T05:20:16;1.10;37.00
64549;DHT22;49838;51.798;10.954;2022-12-18T05:22:45;1.10;37.10
64549;DHT22;49838;51.798;10.954;2022-12-18T05:25:13;1.10;37.10
64549;DHT22;49838;51.798;10.954;2022-12-18T05:27:41;1.20;37.10
64549;DHT22;49838;51.798;10.954;2022-12-18T05:30:08;1.20;37.00
64549;DHT22;49838;51.798;10.954;2022-12-18T05:32:37;1.20;37.00
64549;DHT22;49838;51.798;10.954;2022-12-18T05:35:05;1.20;37.00
64549;DHT22;49838;51.798;10.954;2022-12-18T05:37:33;1.20;37.10
64549;DHT22;49838;51.798;10.954;2022-12-18T05:40:03;1.20;37.10
64549;DHT22;49838;51.798;10.954;2022-12-18T05:42:31;1.10;37.10
64549;DHT22;49838;51.798;10.954;2022-12-18T05:44:58;1.10;37.10
64549;DHT22;49838;51.798;10.954;2022-12-18T05:47:26;1.20;37.10
64549;DHT22;49838;51.798;10.954;2022-12-18T05:49:54;1.20;37.20
64549;DHT22;49838;51.798;10.954;2022-12-18T05:52:22;1.20;37.20
64549;DHT22;49838;51.798;10.954;2022-12-18T05:54:49;1.20;37.20
64549;DHT22;49838;51.798;10.954;2022-12-18T05:57:18;1.20;37.10
64549;DHT22;49838;51.798;10.954;2022-12-18T05:59:46;1.20;37.20
64549;DHT22;49838;51.798;10.954;2022-12-18T06:02:13;1.20;37.20
64549;DHT22;49838;51.798;10.954;2022-12-18T06:04:40;1.10;37.20
64549;DHT22;49838;51.798;10.954;2022-12-18T06:07:08;1.10;37.10
64549;DHT22;49838;51.798;10.954;2022-12-18T06:09:35;1.20;37.30
64549;DHT22;49838;51.798;10.954;2022-12-18T06:12:02;1.20;37.20
64549;DHT22;49838;51.798;10.954;2022-12-18T06:14:31;1.10;37.10
64549;DHT22;49838;51.798;10.954;2022-12-18T06:16:59;1.20;37.20
64549;DHT22;49838;51.798;10.954;2022-12-18T06:19:27;1.20;37.20
64549;DHT22;49838;51.798;10.954;2022-12-18T06:21:54;1.20;37.30
64549;DHT22;49838;51.798;10.954;2022-12-18T06:24:23;1.20;37.30
64549;DHT22;49838;51.798;10.954;2022-12-18T06:26:51;1.20;37.40
64549;DHT22;49838;51.798;10.954;2022-12-18T06:29:18;1.30;37.50
64549;DHT22;49838;51.798;10.954;2022-12-18T06:31:47;1.30;37.60
64549;DHT22;49838;51.798;10.954;2022-12-18T06:34:14;1.30;37.60
64549;DHT22;49838;51.798;10.954;2022-12-18T06:36:41;1.20;37.60
64549;DHT22;49838;51.798;10.954;2022-12-18T06:39:09;1.30;37.80
64549;DHT22;49838;51.798;10.954;2022-12-18T06:41:36;1.30;37.70
64549;DHT22;49838;51.798;10.954;2022-12-18T06:44:03;1.30;37.80
64549;DHT22;49838;51.798;10.954;2022-12-18T06:46:31;1.20;37.70
64549;DHT22;49838;51.798;10.954;2022-12-18T06:49:00;1.20;37.70
64549;DHT22;49838;51.798;10.954;2022-12-18T06:51:27;1.20;37.80
64549;DHT22;49838;51.798;10.954;2022-12-18T06:53:55;1.20;37.70
64549;DHT22;49838;51.798;10.954;2022-12-18T06:56:22;1.30;37.80
64549;DHT22;49838;51.798;10.954;2022-12-18T06:58:49;1.30;37.70
64549;DHT22;49838;51.798;10.954;2022-12-18T07:01:17;1.30;37.70
64549;DHT22;49838;51.798;10.954;2022-12-18T07:03:44;1.40;37.90
64549;DHT22;49838;51.798;10.954;2022-12-18T07:06:14;1.40;37.90
64549;DHT22;49838;51.798;10.954;2022-12-18T07:08:43;1.30;37.80
64549;DHT22;49838;51.798;10.954;2022-12-18T07:11:10;1.40;38.50
64549;DHT22;49838;51.798;10.954;2022-12-18T07:13:38;1.40;37.80
64549;DHT22;49838;51.798;10.954;2022-12-18T07:16:06;1.30;37.80
64549;DHT22;49838;51.798;10.954;2022-12-18T07:18:35;1.30;38.00
64549;DHT22;49838;51.798;10.954;2022-12-18T07:21:03;1.30;38.70
64549;DHT22;49838;51.798;10.954;2022-12-18T07:23:33;1.40;38.10
64549;DHT22;49838;51.798;10.954;2022-12-18T07:26:02;1.40;38.70
64549;DHT22;49838;51.798;10.954;2022-12-18T07:28:30;1.30;37.90
64549;DHT22;49838;51.798;10.954;2022-12-18T07:31:01;1.30;37.90
64549;DHT22;49838;51.798;10.954;2022-12-18T07:33:29;1.40;38.10
64549;DHT22;49838;51.798;10.954;2022-12-18T07:35:58;1.40;38.00
64549;DHT22;49838;51.798;10.954;2022-12-18T07:38:25;1.40;38.00
64549;DHT22;49838;51.798;10.954;2022-12-18T07:40:54;1.40;37.90
64549;DHT22;49838;51.798;10.954;2022-12-18T07:43:26;1.50;38.00
64549;DHT22;49838;51.798;10.954;2022-12-18T07:45:54;1.50;37.90
64549;DHT22;49838;51.798;10.954;2022-12-18T07:48:21;1.50;37.80
64549;DHT22;49838;51.798;10.954;2022-12-18T07:50:49;1.60;37.90
64549;DHT22;49838;51.798;10.954;2022-12-18T07:53:16;1.60;38.40
64549;DHT22;49838;51.798;10.954;2022-12-18T07:55:44;1.70;37.80
64549;DHT22;49838;51.798;10.954;2022-12-18T07:58:12;1.70;37.70
64549;DHT22;49838;51.798;10.954;2022-12-18T08:00:40;1.80;37.80
64549;DHT22;49838;51.798;10.954;2022-12-18T08:03:07;1.90;37.90
64549;DHT22;49838;51.798;10.954;2022-12-18T08:05:35;1.90;37.90
64549;DHT22;49838;51.798;10.954;2022-12-18T08:08:02;2.00;38.00
64549;DHT22;49838;51.798;10.954;2022-12-18T08:10:29;2.00;37.90
64549;DHT22;49838;51.798;10.954;2022-12-18T08:12:57;2.10;37.90
64549;DHT22;49838;51.798;10.954;2022-12-18T08:15:26;2.20;38.00
64549;DHT22;49838;51.798;10.954;2022-12-18T08:17:55;2.20;38.00
64549;DHT22;49838;51.798;10.954;2022-12-18T08:20:23;2.30;38.00
64549;DHT22;49838;51.798;10.954;2022-12-18T08:22:50;2.30;37.90
64549;DHT22;49838;51.798;10.954;2022-12-18T08:25:18;2.40;38.00
64549;DHT22;49838;51.798;10.954;2022-12-18T08:27:45;2.40;37.90
64549;DHT22;49838;51.798;10.954;2022-12-18T08:30:12;2.50;37.90
64549;DHT22;49838;51.798;10.954;2022-12-18T08:32:41;2.60;38.00
64549;DHT22;49838;51.798;10.954;2022-12-18T08:35:09;2.60;38.00
64549;DHT22;49838;51.798;10.954;2022-12-18T08:37:37;2.60;38.00
64549;DHT22;49838;51.798;10.954;2022-12-18T08:40:05;2.70;38.00
64549;DHT22;49838;51.798;10.954;2022-12-18T08:42:34;2.70;38.10
64549;DHT22;49838;51.798;10.954;2022-12-18T08:45:19;2.70;38.10
64549;DHT22;49838;51.798;10.954;2022-12-18T08:47:47;2.80;38.70
64549;DHT22;49838;51.798;10.954;2022-12-18T08:50:15;2.90;38.20
64549;DHT22;49838;51.798;10.954;2022-12-18T08:52:42;2.90;38.10
64549;DHT22;49838;51.798;10.954;2022-12-18T08:55:10;3.00;38.20
64549;DHT22;49838;51.798;10.954;2022-12-18T08:57:37;3.00;38.20
64549;DHT22;49838;51.798;10.954;2022-12-18T09:00:05;3.10;38.20
64549;DHT22;49838;51.798;10.954;2022-12-18T09:02:33;3.20;38.20
64549;DHT22;49838;51.798;10.954;2022-12-18T09:05:02;3.30;38.30
64549;DHT22;49838;51.798;10.954;2022-12-18T09:07:30;3.40;38.40
64549;DHT22;49838;51.798;10.954;2022-12-18T09:10:00;3.40;38.30
64549;DHT22;49838;51.798;10.954;2022-12-18T09:12:28;3.60;38.50
64549;DHT22;49838;51.798;10.954;2022-12-18T09:14:55;3.60;38.50
64549;DHT22;49838;51.798;10.954;2022-12-18T09:17:26;3.80;38.60
64549;DHT22;49838;51.798;10.954;2022-12-18T09:19:53;4.00;38.70
64549;DHT22;49838;51.798;10.954;2022-12-18T09:22:22;4.30;38.90
64549;DHT22;49838;51.798;10.954;2022-12-18T09:24:49;5.00;40.00
64549;DHT22;49838;51.798;10.954;2022-12-18T09:27:16;5.80;41.20
64549;DHT22;49838;51.798;10.954;2022-12-18T09:29:44;6.70;42.20
64549;DHT22;49838;51.798;10.954;2022-12-18T09:32:11;7.50;43.50
64549;DHT22;49838;51.798;10.954;2022-12-18T09:34:38;8.50;44.60
64549;DHT22;49838;51.798;10.954;2022-12-18T09:37:06;9.40;45.30
64549;DHT22;49838;51.798;10.954;2022-12-18T09:39:34;10.20;44.70
64549;DHT22;49838;51.798;10.954;2022-12-18T09:42:02;11.00;44.90
64549;DHT22;49838;51.798;10.954;2022-12-18T09:44:30;11.80;44.90
64549;DHT22;49838;51.798;10.954;2022-12-18T09:47:03;12.50;44.60
64549;DHT22;49838;51.798;10.954;2022-12-18T09:49:39;13.10;43.60
64549;DHT22;49838;51.798;10.954;2022-12-18T09:52:15;13.80;43.10
64549;DHT22;49838;51.798;10.954;2022-12-18T09:54:48;14.30;42.90
64549;DHT22;49838;51.798;10.954;2022-12-18T09:57:20;14.80;43.00
64549;DHT22;49838;51.798;10.954;2022-12-18T09:59:51;15.40;43.00
64549;DHT22;49838;51.798;10.954;2022-12-18T10:02:22;15.80;42.60
64549;DHT22;49838;51.798;10.954;2022-12-18T10:04:55;16.10;41.70
64549;DHT22;49838;51.798;10.954;2022-12-18T10:07:33;16.40;42.20
64549;DHT22;49838;51.798;10.954;2022-12-18T10:10:13;16.80;41.30
64549;DHT22;49838;51.798;10.954;2022-12-18T10:12:51;17.00;41.20
64549;DHT22;49838;51.798;10.954;2022-12-18T10:15:26;17.30;41.20
64549;DHT22;49838;51.798;10.954;2022-12-18T10:18:02;17.60;41.30
64549;DHT22;49838;51.798;10.954;2022-12-18T10:20:42;18.00;41.20
64549;DHT22;49838;51.798;10.954;2022-12-18T10:23:13;18.20;40.90
64549;DHT22;49838;51.798;10.954;2022-12-18T10:25:51;18.40;40.40
64549;DHT22;49838;51.798;10.954;2022-12-18T10:28:22;18.50;40.30
64549;DHT22;49838;51.798;10.954;2022-12-18T10:30:51;18.60;39.90
64549;DHT22;49838;51.798;10.954;2022-12-18T10:33:19;18.70;39.70
64549;DHT22;49838;51.798;10.954;2022-12-18T10:35:48;18.70;38.80
64549;DHT22;49838;51.798;10.954;2022-12-18T10:38:22;18.60;38.40
64549;DHT22;49838;51.798;10.954;2022-12-18T10:40:53;18.40;38.50
64549;DHT22;49838;51.798;10.954;2022-12-18T10:43:23;18.10;38.30
64549;DHT22;49838;51.798;10.954;2022-12-18T10:45:59;17.90;38.20
64549;DHT22;49838;51.798;10.954;2022-12-18T10:48:39;17.70;38.20
64549;DHT22;49838;51.798;10.954;2022-12-18T10:51:19;17.60;38.10
64549;DHT22;49838;51.798;10.954;2022-12-18T10:53:51;17.50;37.60
64549;DHT22;49838;51.798;10.954;2022-12-18T10:56:25;17.30;37.40
64549;DHT22;49838;51.798;10.954;2022-12-18T10:58:58;17.10;37.00
64549;DHT22;49838;51.798;10.954;2022-12-18T11:01:33;17.10;37.40
64549;DHT22;49838;51.798;10.954;2022-12-18T11:04:16;17.10;37.40
64549;DHT22;49838;51.798;10.954;2022-12-18T11:06:52;16.90;37.70
64549;DHT22;49838;51.798;10.954;2022-12-18T11:09:21;16.80;38.00
64549;DHT22;49838;51.798;10.954;2022-12-18T11:11:51;16.80;37.20
64549;DHT22;49838;51.798;10.954;2022-12-18T11:14:21;16.60;37.50
64549;DHT22;49838;51.798;10.954;2022-12-18T11:16:51;16.30;36.80
64549;DHT22;49838;51.798;10.954;2022-12-18T11:19:21;16.00;36.20
64549;DHT22;49838;51.798;10.954;2022-12-18T11:21:54;15.50;36.00
64549;DHT22;49838;51.798;10.954;2022-12-18T11:24:24;15.10;35.90
64549;DHT22;49838;51.798;10.954;2022-12-18T11:26:57;14.80;35.90
64549;DHT22;49838;51.798;10.954;2022-12-18T11:29:28;14.40;36.10
64549;DHT22;49838;51.798;10.954;2022-12-18T11:34:57;13.80;36.50
64549;DHT22;49838;51.798;10.954;2022-12-18T11:37:29;13.40;36.30
64549;DHT22;49838;51.798;10.954;2022-12-18T11:39:57;13.10;36.00
64549;DHT22;49838;51.798;10.954;2022-12-18T11:42:30;12.80;35.20
64549;DHT22;49838;51.798;10.954;2022-12-18T11:45:09;12.30;36.00
64549;DHT22;49838;51.798;10.954;2022-12-18T11:47:52;12.10;35.50
64549;DHT22;49838;51.798;10.954;2022-12-18T11:50:25;11.90;35.80
64549;DHT22;49838;51.798;10.954;2022-12-18T11:52:58;11.40;35.30
64549;DHT22;49838;51.798;10.954;2022-12-18T11:55:28;11.40;35.50
64549;DHT22;49838;51.798;10.954;2022-12-18T11:58:07;11.20;36.20
64549;DHT22;49838;51.798;10.954;2022-12-18T12:00:45;11.00;36.70
64549;DHT22;49838;51.798;10.954;2022-12-18T12:03:27;10.90;37.20
64549;DHT22;49838;51.798;10.954;2022-12-18T12:06:10;10.80;37.20
64549;DHT22;49838;51.798;10.954;2022-12-18T12:08:51;10.80;37.30
64549;DHT22;49838;51.798;10.954;2022-12-18T12:11:31;10.70;37.00
64549;DHT22;49838;51.798;10.954;2022-12-18T12:14:15;10.50;37.00
64549;DHT22;49838;51.798;10.954;2022-12-18T12:16:57;10.50;37.10
64549;DHT22;49838;51.798;10.954;2022-12-18T12:19:33;10.40;36.70
64549;DHT22;49838;51.798;10.954;2022-12-18T12:22:08;10.30;36.50
64549;DHT22;49838;51.798;10.954;2022-12-18T12:24:48;10.20;36.70
64549;DHT22;49838;51.798;10.954;2022-12-18T12:27:32;10.10;36.50
64549;DHT22;49838;51.798;10.954;2022-12-18T12:30:11;9.90;37.50
64549;DHT22;49838;51.798;10.954;2022-12-18T12:32:49;9.80;37.60
64549;DHT22;49838;51.798;10.954;2022-12-18T12:35:32;9.70;37.70
64549;DHT22;49838;51.798;10.954;2022-12-18T12:38:09;9.60;37.60
64549;DHT22;49838;51.798;10.954;2022-12-18T12:40:43;9.50;37.40
64549;DHT22;49838;51.798;10.954;2022-12-18T12:43:20;9.40;37.60
64549;DHT22;49838;51.798;10.954;2022-12-18T12:45:53;9.40;37.50
64549;DHT22;49838;51.798;10.954;2022-12-18T12:48:32;9.30;37.10
64549;DHT22;49838;51.798;10.954;2022-12-18T12:51:07;9.10;37.10
64549;DHT22;49838;51.798;10.954;2022-12-18T12:53:39;9.00;37.10
64549;DHT22;49838;51.798;10.954;2022-12-18T12:56:08;8.90;37.10
64549;DHT22;49838;51.798;10.954;2022-12-18T12:58:40;8.80;36.80
64549;DHT22;49838;51.798;10.954;2022-12-18T13:01:17;8.80;37.10
64549;DHT22;49838;51.798;10.954;2022-12-18T13:03:57;8.60;37.10
64549;DHT22;49838;51.798;10.954;2022-12-18T13:06:35;8.40;37.00
64549;DHT22;49838;51.798;10.954;2022-12-18T13:09:09;8.30;36.70
64549;DHT22;49838;51.798;10.954;2022-12-18T13:11:36;8.20;36.60
64549;DHT22;49838;51.798;10.954;2022-12-18T13:14:24;8.10;36.80
64549;DHT22;49838;51.798;10.954;2022-12-18T13:19:43;7.90;36.80
64549;DHT22;49838;51.798;10.954;2022-12-18T13:22:20;7.90;36.60
64549;DHT22;49838;51.798;10.954;2022-12-18T13:24:49;7.80;36.60
64549;DHT22;49838;51.798;10.954;2022-12-18T13:36:25;7.60;36.30
64549;DHT22;49838;51.798;10.954;2022-12-18T13:39:11;7.50;36.20
64549;DHT22;49838;51.798;10.954;2022-12-18T13:41:48;7.50;36.20
64549;DHT22;49838;51.798;10.954;2022-12-18T13:44:23;7.40;36.20
64549;DHT22;49838;51.798;10.954;2022-12-18T13:46:55;7.40;36.20
64549;DHT22;49838;51.798;10.954;2022-12-18T13:49:39;7.50;36.10
64549;DHT22;49838;51.798;10.954;2022-12-18T13:52:15;7.40;35.90
64549;DHT22;49838;51.798;10.954;2022-12-18T13:54:45;7.30;35.90
64549;DHT22;49838;51.798;10.954;2022-12-18T13:57:25;7.20;35.80
64549;DHT22;49838;51.798;10.954;2022-12-18T13:59:55;7.20;35.80
64549;DHT22;49838;51.798;10.954;2022-12-18T14:02:23;7.10;36.00
64549;DHT22;49838;51.798;10.954;2022-12-18T14:04:53;7.00;36.00
64549;DHT22;49838;51.798;10.954;2022-12-18T14:07:22;7.00;35.90
64549;DHT22;49838;51.798;10.954;2022-12-18T14:09:52;7.00;35.60
64549;DHT22;49838;51.798;10.954;2022-12-18T14:12:24;6.90;35.40
64549;DHT22;49838;51.798;10.954;2022-12-18T14:15:13;6.90;35.70
64549;DHT22;49838;51.798;10.954;2022-12-18T14:17:51;6.80;35.90
64549;DHT22;49838;51.798;10.954;2022-12-18T14:20:21;6.70;35.90
64549;DHT22;49838;51.798;10.954;2022-12-18T14:22:51;6.70;35.90
64549;DHT22;49838;51.798;10.954;2022-12-18T14:25:19;6.70;35.80
64549;DHT22;49838;51.798;10.954;2022-12-18T14:27:50;6.60;35.80
64549;DHT22;49838;51.798;10.954;2022-12-18T14:30:25;6.50;35.80
64549;DHT22;49838;51.798;10.954;2022-12-18T14:33:04;6.50;35.90
64549;DHT22;49838;51.798;10.954;2022-12-18T14:35:37;6.50;35.90
64549;DHT22;49838;51.798;10.954;2022-12-18T14:38:09;6.50;35.90
64549;DHT22;49838;51.798;10.954;2022-12-18T14:40:51;6.50;35.90
64549;DHT22;49838;51.798;10.954;2022-12-18T14:43:19;6.60;35.90
64549;DHT22;49838;51.798;10.954;2022-12-18T14:45:47;6.50;35.80
64549;DHT22;49838;51.798;10.954;2022-12-18T14:48:16;6.40;35.70
64549;DHT22;49838;51.798;10.954;2022-12-18T14:50:54;6.40;35.60
64549;DHT22;49838;51.798;10.954;2022-12-18T14:53:28;6.40;35.60
64549;DHT22;49838;51.798;10.954;2022-12-18T14:56:13;6.40;35.60
64549;DHT22;49838;51.798;10.954;2022-12-18T14:58:44;6.30;35.60
64549;DHT22;49838;51.798;10.954;2022-12-18T15:01:20;6.30;35.60
64549;DHT22;49838;51.798;10.954;2022-12-18T15:03:50;6.30;35.70
64549;DHT22;49838;51.798;10.954;2022-12-18T15:06:25;6.30;35.60
64549;DHT22;49838;51.798;10.954;2022-12-18T15:08:55;6.20;35.50
64549;DHT22;49838;51.798;10.954;2022-12-18T15:11:26;6.20;35.50
64549;DHT22;49838;51.798;10.954;2022-12-18T15:13:57;6.20;35.60
64549;DHT22;49838;51.798;10.954;2022-12-18T15:16:25;6.20;35.40
64549;DHT22;49838;51.798;10.954;2022-12-18T15:18:52;6.20;35.30
64549;DHT22;49838;51.798;10.954;2022-12-18T15:21:20;6.20;35.40
64549;DHT22;49838;51.798;10.954;2022-12-18T15:23:50;6.20;35.40
64549;DHT22;49838;51.798;10.954;2022-12-18T15:26:19;6.20;35.30
64549;DHT22;49838;51.798;10.954;2022-12-18T15:28:49;6.20;35.20
64549;DHT22;49838;51.798;10.954;2022-12-18T15:31:24;6.30;35.30
64549;DHT22;49838;51.798;10.954;2022-12-18T15:34:00;6.30;35.10
64549;DHT22;49838;51.798;10.954;2022-12-18T15:36:38;6.30;34.80
64549;DHT22;49838;51.798;10.954;2022-12-18T15:39:09;6.30;34.70
64549;DHT22;49838;51.798;10.954;2022-12-18T15:41:38;6.30;34.80
64549;DHT22;49838;51.798;10.954;2022-12-18T15:44:26;6.30;34.70
64549;DHT22;49838;51.798;10.954;2022-12-18T15:46:53;6.20;34.70
64549;DHT22;49838;51.798;10.954;2022-12-18T15:49:20;6.20;34.60
64549;DHT22;49838;51.798;10.954;2022-12-18T15:51:48;6.20;34.60
64549;DHT22;49838;51.798;10.954;2022-12-18T15:54:19;6.20;34.70
64549;DHT22;49838;51.798;10.954;2022-12-18T15:57:09;6.10;34.70
64549;DHT22;49838;51.798;10.954;2022-12-18T15:59:51;6.10;34.70
64549;DHT22;49838;51.798;10.954;2022-12-18T16:02:21;6.10;34.70
64549;DHT22;49838;51.798;10.954;2022-12-18T16:04:49;6.00;34.60
64549;DHT22;49838;51.798;10.954;2022-12-18T16:07:17;6.00;34.60